Time;durP1;ratioP1;P1;durP2;ratioP2;P2;SDS_P1;SDS_P2;PMS_P1;PMS_P2;Temp;Humidity;BMP_temperature;BMP_pressure;BME280_temperature;BME280_humidity;BME280_pressure;Samples;Min_cycle;Max_cycle;Signal;HPM_P1;HPM_P2
2022/05/28 00:00:11;;;;;;;6.05;1.08;;;16.50;70.90;;;;;;4970950;28;20322;-76
2022/05/28 00:02:37;;;;;;;4.28;0.73;;;16.40;70.60;;;;;;4971666;28;20037;-74
2022/05/28 00:05:04;;;;;;;3.92;1.23;;;16.40;70.80;;;;;;4970620;28;20480;-75
2022/05/28 00:07:29;;;;;;;4.53;1.20;;;16.40;71.00;;;;;;4972478;28;20031;-75
2022/05/28 00:09:55;;;;;;;4.88;1.02;;;16.40;71.30;;;;;;4972485;28;20033;-75
2022/05/28 00:12:28;;;;;;;4.40;1.33;;;16.40;71.40;;;;;;4972631;28;20027;-75
2022/05/28 00:14:55;;;;;;;4.13;0.98;;;16.40;71.20;;;;;;4971039;28;20130;-75
2022/05/28 00:17:21;;;;;;;5.32;1.00;;;16.30;71.50;;;;;;4974745;28;20026;-75
2022/05/28 00:19:46;;;;;;;5.55;1.10;;;16.30;70.80;;;;;;4976100;28;20025;-74
2022/05/28 00:22:12;;;;;;;6.97;1.48;;;16.30;70.80;;;;;;4958865;28;20026;-74
2022/05/28 00:24:38;;;;;;;6.38;0.95;;;16.30;71.00;;;;;;4958735;28;20498;-74
2022/05/28 00:27:04;;;;;;;5.72;1.10;;;16.20;71.00;;;;;;4975678;28;20062;-75
2022/05/28 00:29:29;;;;;;;8.10;1.10;;;16.20;71.20;;;;;;4975013;28;20077;-75
2022/05/28 00:31:55;;;;;;;5.97;1.20;;;16.20;71.60;;;;;;4975666;28;20019;-75
2022/05/28 00:34:21;;;;;;;3.80;1.00;;;16.10;71.60;;;;;;4976271;28;20038;-75
2022/05/28 00:36:47;;;;;;;4.10;0.90;;;16.10;71.70;;;;;;4974558;28;20059;-75
2022/05/28 00:39:12;;;;;;;5.22;0.90;;;16.10;71.90;;;;;;4973994;28;20069;-75
2022/05/28 00:41:38;;;;;;;6.50;1.27;;;16.10;72.20;;;;;;4939744;29;20054;-75
2022/05/28 00:44:06;;;;;;;4.28;1.00;;;16.00;72.30;;;;;;4955047;29;20030;-75
2022/05/28 00:46:32;;;;;;;6.68;1.38;;;16.00;72.60;;;;;;4966964;28;20038;-75
2022/05/28 00:49:04;;;;;;;4.88;1.00;;;16.00;72.50;;;;;;4975464;28;20026;-75
2022/05/28 00:51:34;;;;;;;5.65;1.00;;;15.90;72.80;;;;;;4975566;28;20408;-74
2022/05/28 00:54:04;;;;;;;3.65;0.80;;;15.90;72.80;;;;;;4975413;28;20478;-75
2022/05/28 00:56:30;;;;;;;3.65;0.90;;;15.80;72.70;;;;;;4974069;28;20031;-75
2022/05/28 00:58:56;;;;;;;5.90;1.13;;;15.80;73.00;;;;;;4974967;28;20035;-75
2022/05/28 01:01:26;;;;;;;8.45;1.23;;;15.80;73.50;;;;;;4974364;28;20027;-75
2022/05/28 01:04:00;;;;;;;6.30;1.73;;;15.70;73.50;;;;;;4973759;28;20114;-76
2022/05/28 01:06:34;;;;;;;7.13;1.20;;;15.80;74.00;;;;;;4957806;28;20134;-76
2022/05/28 01:09:15;;;;;;;4.93;0.90;;;15.70;74.00;;;;;;4954280;29;20063;-75
2022/05/28 01:11:49;;;;;;;7.55;1.17;;;15.70;74.20;;;;;;4958003;28;20388;-75
2022/05/28 01:14:24;;;;;;;4.50;1.20;;;15.70;74.80;;;;;;4973899;28;20033;-75
2022/05/28 01:16:54;;;;;;;5.55;1.08;;;15.60;74.80;;;;;;4974730;28;20023;-75
2022/05/28 01:19:47;;;;;;;3.65;1.20;;;15.60;74.90;;;;;;4974606;28;20034;-75
2022/05/28 01:22:33;;;;;;;6.13;0.98;;;15.60;75.00;;;;;;4975067;28;20050;-75
2022/05/28 01:25:10;;;;;;;7.60;1.20;;;15.60;75.20;;;;;;4973451;28;20035;-76
2022/05/28 01:27:45;;;;;;;8.98;1.45;;;15.60;75.20;;;;;;4958364;28;20130;-75
2022/05/28 01:30:14;;;;;;;5.93;1.00;;;15.60;74.90;;;;;;4973985;28;20027;-75
2022/05/28 01:32:41;;;;;;;8.32;1.10;;;15.50;74.40;;;;;;4958166;28;20122;-75
2022/05/28 01:35:10;;;;;;;8.77;0.80;;;15.50;73.50;;;;;;4973626;28;20035;-75
2022/05/28 01:37:38;;;;;;;7.88;1.42;;;15.40;72.90;;;;;;4958134;28;20392;-74
2022/05/28 01:40:07;;;;;;;4.03;1.05;;;15.40;72.30;;;;;;4974986;28;20030;-74
2022/05/28 01:42:34;;;;;;;2.55;0.80;;;15.40;72.00;;;;;;4974189;28;20027;-74
2022/05/28 01:45:01;;;;;;;2.38;0.70;;;15.40;71.90;;;;;;4973570;28;20090;-74
2022/05/28 01:47:28;;;;;;;7.35;0.98;;;15.30;70.90;;;;;;4975208;28;20027;-75
2022/05/28 01:49:54;;;;;;;2.67;0.88;;;15.30;70.80;;;;;;4973386;28;20027;-76
2022/05/28 01:52:21;;;;;;;4.90;0.98;;;15.30;70.80;;;;;;4957938;28;20094;-75
2022/05/28 01:54:49;;;;;;;5.85;1.08;;;15.20;70.80;;;;;;4974082;28;20037;-75
2022/05/28 01:57:15;;;;;;;4.68;0.75;;;15.20;70.90;;;;;;4974833;28;20496;-75
2022/05/28 01:59:41;;;;;;;4.55;0.95;;;15.20;71.00;;;;;;4973925;28;20027;-75
2022/05/28 02:02:11;;;;;;;5.60;1.35;;;15.20;71.10;;;;;;4973420;28;20030;-75
2022/05/28 02:04:39;;;;;;;7.93;1.10;;;15.20;71.60;;;;;;4973860;28;20035;-74
2022/05/28 02:07:05;;;;;;;3.95;0.70;;;15.20;71.60;;;;;;4974227;28;20042;-75
2022/05/28 02:09:44;;;;;;;5.85;0.68;;;15.20;71.80;;;;;;4975107;28;20085;-75
2022/05/28 02:12:19;;;;;;;5.20;0.80;;;15.10;72.20;;;;;;4973321;28;20027;-74
2022/05/28 02:15:15;;;;;;;2.30;0.63;;;15.10;72.50;;;;;;4957455;28;20053;-75
2022/05/28 02:17:50;;;;;;;9.75;1.10;;;15.10;72.60;;;;;;4957415;28;20055;-74
2022/05/28 02:20:35;;;;;;;4.55;0.60;;;15.10;72.10;;;;;;4972802;28;20436;-74
2022/05/28 02:23:29;;;;;;;6.75;0.98;;;15.10;71.60;;;;;;4972863;28;20027;-75
2022/05/28 02:26:26;;;;;;;5.72;1.00;;;15.10;72.00;;;;;;4956740;28;20129;-75
2022/05/28 02:28:53;;;;;;;2.92;0.90;;;15.00;71.70;;;;;;4957219;28;20125;-74
2022/05/28 02:31:32;;;;;;;4.68;0.85;;;15.00;72.00;;;;;;4972599;28;20114;-74
2022/05/28 02:33:58;;;;;;;5.70;1.08;;;15.00;71.70;;;;;;4972739;28;20054;-74
2022/05/28 02:36:24;;;;;;;5.18;0.93;;;14.90;72.00;;;;;;4973159;28;20370;-74
2022/05/28 02:38:51;;;;;;;3.17;0.70;;;14.80;72.30;;;;;;4972650;28;20054;-74
2022/05/28 02:41:17;;;;;;;5.00;0.82;;;14.80;72.20;;;;;;4956390;28;20085;-75
2022/05/28 02:43:43;;;;;;;4.80;0.90;;;14.90;72.10;;;;;;4956972;28;20431;-74
2022/05/28 02:46:09;;;;;;;6.10;0.90;;;14.80;71.60;;;;;;4972487;28;20030;-75
2022/05/28 02:48:35;;;;;;;2.40;0.70;;;14.80;71.40;;;;;;4973028;28;20058;-74
2022/05/28 02:51:03;;;;;;;3.00;0.77;;;14.70;71.80;;;;;;4972482;28;20404;-74
2022/05/28 02:53:29;;;;;;;2.78;0.60;;;14.70;72.10;;;;;;4972898;28;20030;-74
2022/05/28 02:55:54;;;;;;;2.75;0.55;;;14.70;72.10;;;;;;4956843;28;20041;-74
2022/05/28 02:58:20;;;;;;;4.22;0.80;;;14.70;72.20;;;;;;4973517;28;20034;-74
2022/05/28 03:00:45;;;;;;;3.28;0.60;;;14.70;72.00;;;;;;4972633;28;20081;-74
2022/05/28 03:03:11;;;;;;;5.00;0.95;;;14.70;72.30;;;;;;4972178;28;20118;-75
2022/05/28 03:05:36;;;;;;;4.93;0.82;;;14.70;72.30;;;;;;4956618;28;20503;-75
2022/05/28 03:08:02;;;;;;;1.63;0.63;;;14.70;72.30;;;;;;4956271;28;20031;-74
2022/05/28 03:10:28;;;;;;;4.47;0.82;;;14.70;72.50;;;;;;4972744;28;20536;-75
2022/05/28 03:12:53;;;;;;;4.35;0.88;;;14.60;72.60;;;;;;4972786;28;20030;-75
2022/05/28 03:15:19;;;;;;;4.75;1.27;;;14.60;72.70;;;;;;4956122;28;20085;-75
2022/05/28 03:17:46;;;;;;;5.80;0.65;;;14.60;72.70;;;;;;4972681;28;20507;-74
2022/05/28 03:20:12;;;;;;;4.68;0.95;;;14.60;72.90;;;;;;4956208;28;20069;-75
2022/05/28 03:22:37;;;;;;;4.78;0.88;;;14.50;72.60;;;;;;4956752;28;20038;-75
2022/05/28 03:25:03;;;;;;;4.32;0.75;;;14.50;72.70;;;;;;4973149;28;20054;-75
2022/05/28 03:27:29;;;;;;;3.03;0.85;;;14.50;72.90;;;;;;4956822;28;20035;-75
2022/05/28 03:29:54;;;;;;;4.25;0.90;;;14.30;73.20;;;;;;4972490;28;20115;-74
2022/05/28 03:32:20;;;;;;;6.22;0.70;;;14.30;73.50;;;;;;4955929;28;20038;-74
2022/05/28 03:34:46;;;;;;;6.55;0.70;;;14.30;73.50;;;;;;4956042;28;20066;-74
2022/05/28 03:37:11;;;;;;;4.00;0.77;;;14.30;73.70;;;;;;4973146;28;20034;-74
2022/05/28 03:39:37;;;;;;;4.32;0.93;;;14.20;73.70;;;;;;4972407;28;20435;-74
2022/05/28 03:42:03;;;;;;;5.45;0.90;;;14.20;74.20;;;;;;4972800;28;20131;-74
2022/05/28 03:44:28;;;;;;;4.07;0.57;;;14.20;75.10;;;;;;4973559;28;20078;-74
2022/05/28 03:46:54;;;;;;;6.18;0.70;;;14.20;75.20;;;;;;4973371;28;20031;-74
2022/05/28 03:49:27;;;;;;;3.55;0.77;;;14.10;75.10;;;;;;4971889;28;20211;-74
2022/05/28 03:51:54;;;;;;;3.17;0.65;;;14.00;75.40;;;;;;4975404;28;20117;-74
2022/05/28 03:54:19;;;;;;;3.10;0.73;;;13.90;75.80;;;;;;4975441;28;20035;-74
2022/05/28 03:56:47;;;;;;;4.38;0.75;;;13.90;76.20;;;;;;4977544;28;20031;-74
2022/05/28 03:59:12;;;;;;;3.78;0.73;;;13.90;76.20;;;;;;4975504;28;20050;-74
2022/05/28 04:01:38;;;;;;;4.50;0.93;;;13.80;76.60;;;;;;4976011;28;20502;-74
2022/05/28 04:04:04;;;;;;;2.70;1.00;;;13.80;76.80;;;;;;4976582;28;20392;-75
2022/05/28 04:06:32;;;;;;;3.80;0.93;;;13.80;76.80;;;;;;4975893;28;20039;-75
2022/05/28 04:08:57;;;;;;;2.60;0.73;;;13.70;76.70;;;;;;4959464;28;20587;-75
2022/05/28 04:11:23;;;;;;;2.55;0.70;;;13.60;77.90;;;;;;4976539;28;20058;-75
2022/05/28 04:13:48;;;;;;;3.25;0.77;;;13.50;78.70;;;;;;4975659;28;20081;-75
2022/05/28 04:16:15;;;;;;;5.53;1.20;;;13.60;78.60;;;;;;4976531;28;20031;-75
2022/05/28 04:18:41;;;;;;;6.68;1.00;;;13.60;78.80;;;;;;4976951;28;20023;-75
2022/05/28 04:21:07;;;;;;;3.95;0.90;;;13.60;78.80;;;;;;4975126;28;20057;-75
2022/05/28 04:23:33;;;;;;;4.75;0.80;;;13.60;78.00;;;;;;4975804;28;20065;-75
2022/05/28 04:25:58;;;;;;;1.95;0.60;;;13.60;78.90;;;;;;4975195;28;20055;-77
2022/05/28 04:28:24;;;;;;;8.73;0.90;;;13.50;79.00;;;;;;4958893;28;20034;-76
2022/05/28 04:30:50;;;;;;;5.03;0.90;;;13.50;78.30;;;;;;4976814;28;20098;-76
2022/05/28 04:33:16;;;;;;;6.07;0.73;;;13.50;79.50;;;;;;4974913;28;20027;-76
2022/05/28 04:35:41;;;;;;;3.33;0.70;;;13.40;78.50;;;;;;4975483;28;20145;-76
2022/05/28 04:38:07;;;;;;;5.45;0.90;;;13.50;78.10;;;;;;4976365;28;20061;-76
2022/05/28 04:40:33;;;;;;;3.83;0.60;;;13.50;78.00;;;;;;4959381;28;20031;-76
2022/05/28 04:42:58;;;;;;;4.65;0.77;;;13.60;79.40;;;;;;4975208;28;20384;-75
2022/05/28 04:45:24;;;;;;;4.60;0.85;;;13.60;79.10;;;;;;4974593;28;20031;-75
2022/05/28 04:47:50;;;;;;;5.45;0.68;;;13.60;80.00;;;;;;4975109;28;20030;-75
2022/05/28 04:50:15;;;;;;;4.35;0.80;;;13.60;79.80;;;;;;4974515;28;20034;-75
2022/05/28 04:52:41;;;;;;;3.58;0.60;;;13.40;79.00;;;;;;4975070;28;20050;-75
2022/05/28 04:55:09;;;;;;;3.30;0.75;;;13.40;79.40;;;;;;4974455;28;20125;-75
2022/05/28 04:57:35;;;;;;;3.03;0.82;;;13.30;79.60;;;;;;4974903;28;20022;-75
2022/05/28 05:00:03;;;;;;;3.42;0.88;;;13.40;79.90;;;;;;4974818;28;20481;-75
2022/05/28 05:02:28;;;;;;;3.15;0.60;;;13.40;80.30;;;;;;4973885;28;20031;-75
2022/05/28 05:04:57;;;;;;;5.15;1.00;;;13.40;80.50;;;;;;4974614;28;20476;-75
2022/05/28 05:07:24;;;;;;;4.28;0.98;;;13.40;80.50;;;;;;4974255;28;20035;-75
2022/05/28 05:09:50;;;;;;;2.97;0.77;;;13.50;80.90;;;;;;4975943;28;20511;-75
2022/05/28 05:12:16;;;;;;;2.53;0.57;;;13.50;81.30;;;;;;4958033;28;20170;-75
2022/05/28 05:14:41;;;;;;;5.90;0.70;;;13.50;81.00;;;;;;4974531;28;20062;-75
2022/05/28 05:17:07;;;;;;;4.15;0.98;;;13.60;81.70;;;;;;4974220;28;20031;-76
2022/05/28 05:19:33;;;;;;;5.65;0.70;;;13.70;81.80;;;;;;4975990;28;20379;-76
2022/05/28 05:21:58;;;;;;;6.90;1.55;;;13.70;81.70;;;;;;4975818;28;20031;-75
2022/05/28 05:24:24;;;;;;;2.92;0.75;;;13.70;81.20;;;;;;4973912;28;20047;-75
2022/05/28 05:26:50;;;;;;;7.03;0.88;;;13.70;81.20;;;;;;4974312;28;20058;-76
2022/05/28 05:29:16;;;;;;;3.72;0.95;;;13.80;81.20;;;;;;4975262;28;20041;-76
2022/05/28 05:31:42;;;;;;;3.50;0.68;;;13.80;81.50;;;;;;4974402;28;20450;-76
2022/05/28 05:34:08;;;;;;;3.28;0.77;;;13.70;81.00;;;;;;4957605;28;20027;-76
2022/05/28 05:36:35;;;;;;;2.05;0.70;;;13.70;80.70;;;;;;4975626;28;20035;-76
2022/05/28 05:39:01;;;;;;;3.63;0.70;;;13.80;80.30;;;;;;4974062;28;20114;-75
2022/05/28 05:41:26;;;;;;;2.67;0.68;;;13.80;79.50;;;;;;4974521;28;20054;-76
2022/05/28 05:43:52;;;;;;;4.30;0.77;;;13.90;79.80;;;;;;4975486;28;20527;-76
2022/05/28 05:46:18;;;;;;;3.47;0.70;;;13.90;76.00;;;;;;4973448;28;20500;-76
2022/05/28 05:48:44;;;;;;;3.92;0.90;;;13.90;76.50;;;;;;4975218;28;20023;-76
2022/05/28 05:51:13;;;;;;;4.20;0.80;;;13.80;76.20;;;;;;4974728;28;20031;-76
2022/05/28 05:53:39;;;;;;;6.93;0.80;;;13.80;76.50;;;;;;4973966;28;20185;-76
2022/05/28 05:56:05;;;;;;;3.47;0.60;;;13.80;75.80;;;;;;4975115;28;20531;-75
2022/05/28 05:58:31;;;;;;;3.97;0.77;;;13.80;75.80;;;;;;4974429;28;20026;-76
2022/05/28 06:00:56;;;;;;;3.58;0.80;;;13.80;75.80;;;;;;4974916;28;20030;-75
2022/05/28 06:03:22;;;;;;;7.90;0.98;;;13.80;76.20;;;;;;4973113;28;20041;-75
2022/05/28 06:05:47;;;;;;;3.88;0.75;;;13.90;76.50;;;;;;4973410;28;20373;-75
2022/05/28 06:08:15;;;;;;;1.90;0.75;;;13.90;76.70;;;;;;4973198;28;20030;-75
2022/05/28 06:10:43;;;;;;;2.83;0.75;;;14.00;77.10;;;;;;4973261;28;20023;-75
2022/05/28 06:13:09;;;;;;;4.10;0.90;;;14.00;75.80;;;;;;4973433;28;20512;-77
2022/05/28 06:15:35;;;;;;;3.50;0.60;;;14.00;75.70;;;;;;4973938;28;20069;-75
2022/05/28 06:18:01;;;;;;;4.03;0.95;;;14.00;75.90;;;;;;4973455;28;20054;-75
2022/05/28 06:20:26;;;;;;;5.63;0.98;;;14.00;75.80;;;;;;4972577;28;20046;-75
2022/05/28 06:22:52;;;;;;;5.32;0.52;;;14.00;75.60;;;;;;4974499;28;20026;-75
2022/05/28 06:25:17;;;;;;;6.05;0.80;;;14.10;75.60;;;;;;4973451;28;20055;-76
2022/05/28 06:27:46;;;;;;;4.45;0.68;;;14.10;74.80;;;;;;4973520;28;20033;-75
2022/05/28 06:30:12;;;;;;;4.85;0.88;;;14.20;74.80;;;;;;4972834;28;20030;-76
2022/05/28 06:32:38;;;;;;;6.05;0.70;;;14.20;75.40;;;;;;4973417;28;20065;-75
2022/05/28 06:35:04;;;;;;;1.88;0.60;;;14.20;75.60;;;;;;4957051;28;20066;-75
2022/05/28 06:37:29;;;;;;;4.07;0.90;;;14.20;74.90;;;;;;4972591;28;20054;-75
2022/05/28 06:39:55;;;;;;;4.13;0.75;;;14.20;74.80;;;;;;4974293;28;20027;-74
2022/05/28 06:42:21;;;;;;;3.78;0.93;;;14.20;74.50;;;;;;4972227;28;20035;-75
2022/05/28 06:44:46;;;;;;;4.63;0.93;;;14.20;74.40;;;;;;4972683;28;20093;-75
2022/05/28 06:47:12;;;;;;;9.25;0.60;;;14.20;75.00;;;;;;4971965;28;20031;-76
2022/05/28 06:49:38;;;;;;;3.75;0.70;;;14.20;74.90;;;;;;4972630;28;20034;-74
2022/05/28 06:52:04;;;;;;;4.03;0.80;;;14.20;74.60;;;;;;4972223;28;20027;-76
2022/05/28 06:54:29;;;;;;;3.33;0.52;;;14.20;74.70;;;;;;4955796;28;20088;-76
2022/05/28 06:56:55;;;;;;;4.57;1.02;;;14.20;74.30;;;;;;4972343;28;20023;-75
2022/05/28 06:59:20;;;;;;;4.10;0.93;;;14.20;74.40;;;;;;4971860;28;20033;-75
2022/05/28 07:01:46;;;;;;;3.65;0.50;;;14.10;74.30;;;;;;4972169;28;20158;-75
2022/05/28 07:04:12;;;;;;;2.53;0.52;;;14.20;74.90;;;;;;4971593;28;20456;-77
2022/05/28 07:06:37;;;;;;;6.07;0.80;;;14.20;74.90;;;;;;4973527;28;20047;-75
2022/05/28 07:09:05;;;;;;;2.13;0.50;;;14.30;75.50;;;;;;4972824;28;20042;-75
2022/05/28 07:11:31;;;;;;;6.43;1.02;;;14.40;74.80;;;;;;4972170;28;20081;-75
2022/05/28 07:13:57;;;;;;;4.03;0.55;;;14.50;73.70;;;;;;4972674;28;20420;-75
2022/05/28 07:16:22;;;;;;;2.78;0.70;;;14.50;74.00;;;;;;4973499;28;20035;-75
2022/05/28 07:18:48;;;;;;;5.38;0.55;;;14.60;74.30;;;;;;4972441;28;20031;-75
2022/05/28 07:21:14;;;;;;;3.78;0.80;;;14.60;73.90;;;;;;4972225;28;20030;-75
2022/05/28 07:23:39;;;;;;;7.30;0.75;;;14.60;73.80;;;;;;4973569;28;20031;-75
2022/05/28 07:26:17;;;;;;;7.07;0.98;;;14.60;74.00;;;;;;4970882;28;20097;-76
2022/05/28 07:28:44;;;;;;;2.20;0.68;;;14.70;73.60;;;;;;4976619;28;20035;-76
2022/05/28 07:31:13;;;;;;;3.28;0.68;;;14.70;73.80;;;;;;4976521;28;20031;-76
2022/05/28 07:33:42;;;;;;;3.03;0.63;;;14.70;73.80;;;;;;4976554;28;20082;-79
2022/05/28 07:36:10;;;;;;;1.67;0.47;;;14.70;73.40;;;;;;4976364;28;20062;-82
2022/05/28 07:38:37;;;;;;;3.95;0.88;;;14.70;72.90;;;;;;4977082;28;20069;-81
2022/05/28 07:41:06;;;;;;;4.65;0.57;;;14.80;73.10;;;;;;4977298;28;20065;-79
2022/05/28 07:43:32;;;;;;;1.23;0.43;;;14.80;72.40;;;;;;4972472;28;20226;-76
2022/05/28 07:46:00;;;;;;;1.83;0.57;;;14.90;72.70;;;;;;4976388;28;20031;-82
2022/05/28 07:48:26;;;;;;;3.70;0.70;;;14.90;72.20;;;;;;4977251;28;20042;-81
2022/05/28 07:50:53;;;;;;;3.83;0.60;;;14.90;71.60;;;;;;4959847;28;20050;-81
2022/05/28 07:53:19;;;;;;;2.47;0.50;;;14.90;71.20;;;;;;4975686;28;20042;-78
2022/05/28 07:55:45;;;;;;;4.03;0.57;;;14.80;70.90;;;;;;4976573;28;20479;-82
2022/05/28 07:58:13;;;;;;;2.53;0.80;;;14.90;71.40;;;;;;4976824;28;20022;-84
2022/05/28 08:00:42;;;;;;;4.22;0.57;;;15.00;71.90;;;;;;4928403;29;20063;-83
2022/05/28 08:03:09;;;;;;;3.30;0.40;;;15.00;71.70;;;;;;4936774;29;20034;-81
2022/05/28 08:05:36;;;;;;;4.43;0.57;;;15.00;71.70;;;;;;4936688;29;20046;-81
2022/05/28 08:08:03;;;;;;;5.30;0.88;;;15.00;72.00;;;;;;4937081;29;20485;-82
2022/05/28 08:10:28;;;;;;;4.25;0.70;;;15.10;72.90;;;;;;4936737;29;20052;-82
2022/05/28 08:12:58;;;;;;;6.15;0.70;;;15.10;72.50;;;;;;4937389;29;20044;-80
2022/05/28 08:15:24;;;;;;;2.80;0.80;;;15.10;72.10;;;;;;4935447;29;20038;-81
2022/05/28 08:17:51;;;;;;;2.97;0.50;;;15.20;72.10;;;;;;4935809;29;20024;-79
2022/05/28 08:20:18;;;;;;;3.40;0.40;;;15.20;71.80;;;;;;4935875;29;20071;-80
2022/05/28 08:25:29;;;;;;;3.10;0.55;;;15.40;72.00;;;;;;4918267;29;20066;-81
2022/05/28 08:28:04;;;;;;;4.47;0.70;;;15.40;71.20;;;;;;4919258;29;20043;-80
2022/05/28 08:30:29;;;;;;;3.65;0.60;;;15.50;72.10;;;;;;4906176;29;20071;-82
2022/05/28 08:32:55;;;;;;;4.68;0.90;;;15.50;71.30;;;;;;4936132;29;20054;-82
2022/05/28 08:35:21;;;;;;;3.53;0.90;;;15.60;71.00;;;;;;4936163;29;20047;-80
2022/05/28 08:37:47;;;;;;;3.83;0.55;;;15.60;71.50;;;;;;4950886;28;20396;-81
2022/05/28 08:40:14;;;;;;;3.28;1.20;;;15.60;72.80;;;;;;4975927;28;20110;-81
2022/05/28 08:42:50;;;;;;;4.00;0.95;;;15.70;71.10;;;;;;4975708;28;20026;-83
2022/05/28 08:45:17;;;;;;;4.53;0.80;;;15.80;71.10;;;;;;4943981;28;20089;-80
2022/05/28 08:47:46;;;;;;;2.72;0.50;;;16.00;71.00;;;;;;4976010;28;20443;-84
2022/05/28 08:50:13;;;;;;;3.50;0.90;;;16.10;70.70;;;;;;4958481;28;20093;-83
2022/05/28 08:52:45;;;;;;;4.47;0.63;;;16.20;70.90;;;;;;4975693;28;20496;-80
2022/05/28 08:55:24;;;;;;;3.90;0.55;;;16.30;70.60;;;;;;4976649;28;20034;-88
2022/05/28 08:58:05;;;;;;;3.88;0.50;;;16.20;70.50;;;;;;4975772;28;20065;-81
2022/05/28 09:00:40;;;;;;;3.35;0.52;;;16.10;70.10;;;;;;4963186;28;20033;-79
2022/05/28 09:03:08;;;;;;;4.93;0.70;;;16.00;70.60;;;;;;4972835;28;20508;-81
2022/05/28 09:06:02;;;;;;;2.60;0.65;;;16.00;70.60;;;;;;4976065;28;20027;-82
2022/05/28 09:08:32;;;;;;;2.85;0.70;;;16.00;70.60;;;;;;4952728;28;20077;-83
2022/05/28 09:11:03;;;;;;;4.43;0.77;;;16.00;70.10;;;;;;4975359;28;20037;-79
2022/05/28 09:13:50;;;;;;;4.13;1.00;;;16.00;71.10;;;;;;4974631;28;20062;-81
2022/05/28 09:16:29;;;;;;;2.25;0.50;;;16.00;69.60;;;;;;4975468;28;20521;-81
2022/05/28 09:18:59;;;;;;;5.22;0.80;;;16.00;70.00;;;;;;4975754;28;20563;-81
2022/05/28 09:21:25;;;;;;;5.35;1.17;;;16.10;69.10;;;;;;4975017;28;20108;-81
2022/05/28 09:24:04;;;;;;;5.00;1.05;;;16.20;68.70;;;;;;4975460;28;20118;-81
2022/05/28 09:26:36;;;;;;;2.10;0.82;;;16.20;67.80;;;;;;4974700;28;20062;-81
2022/05/28 09:29:17;;;;;;;4.93;0.77;;;16.20;67.80;;;;;;4962234;28;20453;-81
2022/05/28 09:32:09;;;;;;;3.17;0.57;;;16.20;67.40;;;;;;4976125;28;20081;-81
2022/05/28 09:34:50;;;;;;;6.95;0.63;;;16.30;68.30;;;;;;4950814;28;20041;-80
2022/05/28 09:37:31;;;;;;;3.95;0.43;;;16.40;66.80;;;;;;4978593;28;20041;-81
2022/05/28 09:40:03;;;;;;;4.00;0.80;;;16.50;66.30;;;;;;4975367;28;20472;-80
2022/05/28 09:42:36;;;;;;;4.15;0.60;;;16.80;66.90;;;;;;4976367;28;20296;-82
2022/05/28 09:45:29;;;;;;;3.22;1.05;;;16.90;65.00;;;;;;4976742;28;20045;-81
2022/05/28 09:47:54;;;;;;;4.85;0.70;;;17.00;64.70;;;;;;4972882;28;20034;-83
2022/05/28 09:50:37;;;;;;;2.00;0.40;;;17.00;64.20;;;;;;4975496;28;20038;-81
2022/05/28 09:56:13;;;;;;;4.95;0.70;;;17.10;63.20;;;;;;4977448;28;20108;-79
2022/05/28 09:58:40;;;;;;;2.63;0.80;;;17.10;63.60;;;;;;4969758;28;20117;-81
2022/05/28 10:01:11;;;;;;;3.85;0.60;;;17.00;63.60;;;;;;4975490;28;20031;-80
2022/05/28 10:06:28;;;;;;;2.45;0.45;;;17.00;64.20;;;;;;4974205;28;20698;-81
2022/05/28 10:08:53;;;;;;;3.55;1.00;;;17.00;62.90;;;;;;4976056;28;20031;-81
2022/05/28 10:11:22;;;;;;;2.28;0.40;;;17.00;63.50;;;;;;4978667;28;20055;-80
2022/05/28 10:13:54;;;;;;;2.13;0.50;;;17.00;62.60;;;;;;4977601;28;20531;-80
2022/05/28 10:16:21;;;;;;;;;;;17.00;61.40;;;;;;4974148;28;20062;-82
2022/05/28 10:19:11;;;;;;;5.63;1.20;;;17.10;60.30;;;;;;4972317;28;19973;-80
2022/05/28 10:21:37;;;;;;;3.70;0.65;;;17.10;59.70;;;;;;4973075;28;20453;-83
2022/05/28 10:24:13;;;;;;;3.50;0.60;;;17.20;62.50;;;;;;4976894;28;20018;-80
2022/05/28 10:26:44;;;;;;;3.22;0.68;;;17.10;62.00;;;;;;4973789;28;20058;-83
2022/05/28 10:29:32;;;;;;;3.42;0.75;;;17.10;60.90;;;;;;4973162;28;20027;-79
2022/05/28 10:32:00;;;;;;;4.18;0.50;;;17.20;62.00;;;;;;4973379;28;20037;-79
2022/05/28 10:34:36;;;;;;;1.83;0.55;;;17.40;61.30;;;;;;4974047;28;20030;-79
2022/05/28 10:37:11;;;;;;;1.17;0.60;;;17.50;61.90;;;;;;4974861;28;20503;-78
2022/05/28 10:39:38;;;;;;;2.03;0.60;;;17.80;62.10;;;;;;4973576;28;20031;-77
2022/05/28 10:42:07;;;;;;;2.80;0.60;;;18.10;60.50;;;;;;4975413;28;20080;-82
2022/05/28 10:44:33;;;;;;;2.05;0.63;;;18.30;60.60;;;;;;4975565;28;20049;-81
2022/05/28 10:47:14;;;;;;;2.15;0.80;;;18.40;59.80;;;;;;4976112;28;20022;-82
2022/05/28 10:50:19;;;;;;;2.50;0.60;;;18.30;58.40;;;;;;4976032;28;20035;-81
2022/05/28 10:53:00;;;;;;;4.15;0.95;;;18.20;58.30;;;;;;4904099;28;20062;-79
2022/05/28 10:55:28;;;;;;;1.58;0.50;;;18.10;58.50;;;;;;4975314;28;20031;-89
2022/05/28 10:58:21;;;;;;;5.68;0.70;;;18.20;58.60;;;;;;4974853;28;20114;-80
2022/05/28 11:00:57;;;;;;;2.05;0.50;;;18.30;58.70;;;;;;4973745;28;20019;-80
2022/05/28 11:03:54;;;;;;;2.33;0.47;;;18.30;59.00;;;;;;4971560;28;20030;-80
2022/05/28 11:06:38;;;;;;;3.17;0.70;;;18.30;57.40;;;;;;4968058;28;20043;-83
2022/05/28 11:09:35;;;;;;;2.88;0.68;;;18.40;57.40;;;;;;4954819;29;20129;-84
2022/05/28 11:12:04;;;;;;;3.35;0.50;;;18.60;57.70;;;;;;4957326;28;20023;-86
2022/05/28 11:14:41;;;;;;;2.75;0.70;;;18.50;58.00;;;;;;4973046;28;20023;-84
2022/05/28 11:17:37;;;;;;;3.47;0.80;;;18.50;58.20;;;;;;4972863;28;20461;-84
2022/05/28 11:20:33;;;;;;;2.80;0.30;;;18.60;58.10;;;;;;4974297;28;20101;-85
2022/05/28 11:23:16;;;;;;;6.20;0.38;;;18.60;56.90;;;;;;4974681;28;20110;-84
2022/05/28 11:26:06;;;;;;;2.47;0.50;;;18.50;56.40;;;;;;4974317;28;20054;-86
2022/05/28 11:28:56;;;;;;;3.72;0.80;;;18.40;56.70;;;;;;4974313;28;20035;-80
2022/05/28 11:31:54;;;;;;;3.67;0.60;;;18.40;58.20;;;;;;4955377;28;20063;-85
2022/05/28 11:34:30;;;;;;;1.35;0.50;;;18.40;57.90;;;;;;4968160;28;20043;-84
2022/05/28 11:37:02;;;;;;;5.88;0.60;;;18.40;58.20;;;;;;4957101;28;20038;-83
2022/05/28 11:39:57;;;;;;;2.72;0.43;;;18.40;58.20;;;;;;4972884;28;20027;-82
2022/05/28 11:42:25;;;;;;;2.38;0.60;;;18.50;57.90;;;;;;4947064;28;20086;-83
2022/05/28 11:44:56;;;;;;;3.38;0.60;;;18.50;57.90;;;;;;4960453;28;20491;-83
2022/05/28 11:47:36;;;;;;;4.75;0.50;;;18.60;58.30;;;;;;4968057;28;20034;-83
2022/05/28 11:53:18;;;;;;;2.20;0.60;;;19.10;57.40;;;;;;4974107;28;20122;-82
2022/05/28 11:55:46;;;;;;;3.35;0.50;;;19.20;56.50;;;;;;4938907;28;20050;-82
2022/05/28 11:58:12;;;;;;;2.83;0.73;;;19.20;55.60;;;;;;4973358;28;20023;-83
2022/05/28 12:00:40;;;;;;;3.35;0.63;;;19.20;54.90;;;;;;4959095;28;20034;-84
2022/05/28 12:03:29;;;;;;;3.80;0.45;;;19.20;56.10;;;;;;4976188;28;20097;-82
2022/05/28 12:06:16;;;;;;;2.92;0.40;;;19.10;55.80;;;;;;4973248;28;20049;-81
2022/05/28 12:08:54;;;;;;;3.22;0.50;;;19.10;56.40;;;;;;4962049;28;20038;-85
2022/05/28 12:11:21;;;;;;;1.30;0.55;;;19.30;56.00;;;;;;4959862;28;20058;-84
2022/05/28 12:13:54;;;;;;;1.95;0.70;;;19.50;56.40;;;;;;4946729;29;20067;-84
2022/05/28 12:16:55;;;;;;;1.80;0.40;;;19.70;55.00;;;;;;4947921;29;20072;-83
2022/05/28 12:19:23;;;;;;;3.90;0.50;;;20.00;54.20;;;;;;4927488;29;20051;-86
2022/05/28 12:21:49;;;;;;;1.55;0.50;;;20.20;54.60;;;;;;4927244;29;20131;-80
2022/05/28 12:24:15;;;;;;;2.22;0.40;;;20.40;53.20;;;;;;4922760;29;20525;-82
2022/05/28 12:29:58;;;;;;;1.33;0.45;;;20.20;52.30;;;;;;4924007;29;20474;-82
2022/05/28 12:32:40;;;;;;;2.05;0.40;;;20.20;52.60;;;;;;4921990;29;20068;-87
2022/05/28 12:35:24;;;;;;;233.82;97.88;;;20.10;53.90;;;;;;4928322;29;20064;-87
2022/05/28 12:38:29;;;;;;;105.78;50.38;;;20.30;54.20;;;;;;4929694;29;20102;-86
2022/05/28 12:41:00;;;;;;;13.88;8.88;;;20.30;52.80;;;;;;4867550;29;20042;-83
2022/05/28 12:43:35;;;;;;;4.50;2.58;;;20.10;52.70;;;;;;4861387;29;20038;-82
2022/05/28 12:46:59;;;;;;;8.15;1.92;;;20.00;53.60;;;;;;4853645;29;20147;-84
2022/05/28 12:49:27;;;;;;;3.58;1.33;;;19.80;51.50;;;;;;4836220;29;20057;-85
2022/05/28 12:52:19;;;;;;;1.83;0.52;;;20.00;53.30;;;;;;4814845;29;20535;-82
2022/05/28 12:54:48;;;;;;;;;;;20.20;53.60;;;;;;4792838;30;20047;-82
2022/05/28 12:57:33;;;;;;;2.58;0.65;;;20.40;51.90;;;;;;4757564;30;20016;-82
2022/05/28 13:00:22;;;;;;;1.65;0.35;;;20.60;52.30;;;;;;4756804;30;20047;-82
2022/05/28 13:02:51;;;;;;;1.48;0.50;;;20.70;52.20;;;;;;4750532;30;20174;-84
2022/05/28 13:05:45;;;;;;;2.72;0.40;;;20.70;52.70;;;;;;4758689;30;20156;-82
2022/05/28 13:08:30;;;;;;;3.85;0.32;;;20.70;51.50;;;;;;4745300;30;20591;-82
2022/05/28 13:11:06;;;;;;;1.17;0.30;;;20.50;50.70;;;;;;4753411;30;20564;-81
2022/05/28 13:14:10;;;;;;;3.50;0.40;;;20.50;50.30;;;;;;4756646;30;20054;-82
2022/05/28 13:16:53;;;;;;;0.43;0.22;;;20.30;48.70;;;;;;4744968;30;20042;-81
2022/05/28 13:19:41;;;;;;;2.10;0.30;;;20.30;49.20;;;;;;4821263;29;20076;-81
2022/05/28 13:22:27;;;;;;;3.03;0.50;;;20.30;50.40;;;;;;4864325;29;20167;-81